Meteo Giornale » Osservazioni meteo Italia » Treviso-S Angelo

ore: 03:50 - Osservazioni Meteo Treviso-S Angelo
Lat. 45° 39' N Lon. 12° 11' E Alt. 18 metri s.l.m.

sereno Europe/Rome

16 °C

Sereno

Temp. 24 Ore

0 °C

24 °C

Nord

5.5 Km/h

Dew point 14 °C

Umidità 87 %

Visibilità  10 Km

Il sole sorge alle ore 05:48

Il sole tramonta alle ore 20:47

Data e Ora Cielo e Fenomeni T °C DP °C Um. % Pres. hPa Vis. km Vento km/h
Oggi h: 03:50 sereno Sereno 16 14 87 1008 10 N 5.5
Oggi h: 03:20 sereno Sereno 16 14 87 1008 10 O 7.4
Oggi h: 02:50 sereno Sereno 17 14 82 1008 10 N 3.7
Oggi h: 02:20 sereno Sereno 17 14 82 1008 10 N 5.5
Oggi h: 01:50 sereno Sereno 17 14 82 1008 10 N 3.7
Oggi h: 01:20 poco_nuvoloso Poco Nuvoloso 18 15 82 1008 10 N 3.7
Oggi h: 00:50 molto_nuvoloso Molto Nuvoloso 18 15 82 1007 10 N 3.7
Oggi h: 00:20 molto_nuvoloso Molto Nuvoloso 18 15 82 1007 10 N 5.5
Ieri h: 23:50 sereno Sereno 19 15 77 1007 10 N 3.7
Ieri h: 23:20 sereno Sereno 19 15 77 1007 10 N 1.8
Ieri h: 22:50 sereno Sereno 20 15 72 1007 10 N 3.7
Ieri h: 22:20 sereno Sereno 19 15 77 1007 10 N 3.7
Ieri h: 21:50 sereno Sereno 21 14 64 1006 10 N 3.7
Ieri h: 21:20 sereno Sereno 21 15 68 1006 10 N 3.7
Ieri h: 20:50 poco_nuvoloso Poco Nuvoloso 22 14 60 1005 10 N 5.5
Ieri h: 20:20 poco_nuvoloso Poco Nuvoloso 0 0 30 0 10 N 0
Ieri h: 19:20 sereno Sereno 22 14 60 1005 10 N 0
Ieri h: 18:50 sereno Sereno 0 0 25 0 10 N 0
Ieri h: 18:20 sereno Sereno 0 0 23 0 10 N 0
Ieri h: 17:20 sereno Sereno 0 0 20 0 10 N 0
Ieri h: 16:50 nuvoloso Nuvoloso 23 14 56 1004 10 N 3.7
Ieri h: 16:20 nuvoloso Nuvoloso 23 14 56 1005 10 N 9.3
Ieri h: 15:50 nuvoloso Nuvoloso 23 13 53 1004 10 N 9.3
Ieri h: 15:20 sereno Sereno 23 14 56 1005 10 N 7.4
Ieri h: 14:50 sereno Sereno 23 13 53 1004 10 N 5.5
Ieri h: 13:50 sereno Sereno 24 13 50 1004 10 O 9.3
Ieri h: 13:20 sereno Sereno 24 13 50 1005 10 SO 9.3
Ieri h: 12:50 sereno Sereno 23 12 49 1005 10 O/SO 11.1
Ieri h: 12:20 sereno Sereno 23 11 46 1004 10 SO 9.3
Ieri h: 11:50 sereno Sereno 23 11 46 1004 10 N 5.5
Ieri h: 11:20 sereno Sereno 23 13 53 1004 10 S 7.4
Ieri h: 10:50 sereno Sereno 22 12 53 1005 10 N 5.5
Ieri h: 10:20 sereno Sereno 21 11 52 1005 10 N 1.8
Ieri h: 09:50 sereno Sereno 20 12 59 1005 10 N 3.7
Ieri h: 09:20 sereno Sereno 19 13 68 1005 10 O/NO 7.4
Ieri h: 08:50 sereno Sereno 19 13 68 1005 10 N 1.8
Ieri h: 08:20 sereno Sereno 19 14 72 1004 10 N 1.8
Ieri h: 07:50 sereno Sereno 18 13 72 1004 10 N 1.8
Ieri h: 07:20 sereno Sereno 16 12 77 1004 10 N 3.7
Ieri h: 06:50 sereno Sereno 15 13 87 1004 10 N 3.7
Ieri h: 06:20 sereno Sereno 14 12 87 1004 10 N 1.8
Ieri h: 05:50 sereno Sereno 14 12 87 1004 10 N 1.8
Ieri h: 05:20 sereno Sereno 14 12 87 1004 10 N 3.7
Ieri h: 04:50 sereno Sereno 14 12 87 1004 10 E/NE 7.4